Main page
METAR-TAF:

METAR-TAF

Airports :

Ibiza, Spain

Ibiza Airport

latitude: 38-52N, longitude: 001-23E, elevation: 7 m

Current weather observation

The report was made 10 minutes ago, at 02:00 UTC
Wind 6 kt from the North/Northeast
Temperature 20°C
Humidity 68%
Pressure 1016 hPa
Visibility 10 km or more
no clouds below 1500 m and no cumulonimbus

METAR: LEIB 290200Z 03006KT CAVOK 20/14 Q1016 NOSIG

Time: 04:10 (02:10 UTC)

Forecast

The report was made 6 hours and 10 minutes ago, at 20:00 UTC
Forecast valid from 28 at 21 UTC to 29 at 21 UTC
Wind 12 kt from the East/Northeast
Visibility 10 km or more
Few clouds at a height of 2000 ft
Temporary
from 29 at 08 UTC to 29 at 14 UTC
Wind 15 kt from the East/Northeast with gusts up to 25 kt

TAF: LEIB 282000Z 2821/2921 06012KT 9999 FEW020 TX26/2912Z TN16/2906Z TEMPO 2908/2914 06015G25KT

Weather observations and forecasts of more than 4000 airports (METAR and TAF reports).

The available stations are represented by yellow and red dots on the map.

Hover mouse over dot to see the name of the station.

Then click to see weather observations and forecasts.

To change the map : click on the green buttons with a black cross to zoom in, on the green button with a dash to zoom out, or on the green arrows for adjacent maps.


METAR-TAF: